Time;durP1;ratioP1;P1;durP2;ratioP2;P2;SDS_P1;SDS_P2;PMS_P1;PMS_P2;Temp;Humidity;BMP_temperature;BMP_pressure;BME280_temperature;BME280_humidity;BME280_pressure;Samples;Min_cycle;Max_cycle;Signal;HPM_P1;HPM_P2
2023/11/27 00:00:50;;;;;;;39.78;20.08;;;4.00;99.90;;;;;;5021853;28;20045;-75
2023/11/27 00:03:16;;;;;;;44.55;21.05;;;3.90;99.90;;;;;;5021925;28;20041;-75
2023/11/27 00:05:50;;;;;;;40.13;21.05;;;3.90;99.90;;;;;;5023700;28;20036;-75
2023/11/27 00:08:26;;;;;;;40.47;20.65;;;4.00;99.90;;;;;;5048326;28;20324;-74
2023/11/27 00:10:53;;;;;;;38.17;20.77;;;4.00;99.90;;;;;;5021295;28;20057;-75
2023/11/27 00:13:19;;;;;;;41.45;21.85;;;4.00;99.90;;;;;;5024121;28;20083;-76
2023/11/27 00:15:46;;;;;;;44.78;21.30;;;4.00;99.90;;;;;;5024116;28;20262;-76
2023/11/27 00:18:13;;;;;;;42.85;22.02;;;3.90;99.90;;;;;;5023907;28;20057;-76
2023/11/27 00:20:40;;;;;;;40.08;22.63;;;3.90;99.90;;;;;;5026581;28;20124;-76
2023/11/27 00:23:07;;;;;;;44.28;21.42;;;3.90;99.90;;;;;;5031534;28;20065;-75
2023/11/27 00:25:34;;;;;;;41.20;22.58;;;3.90;99.90;;;;;;5029882;28;20036;-75
2023/11/27 00:28:01;;;;;;;37.58;19.85;;;3.90;99.90;;;;;;5027686;28;20055;-76
2023/11/27 00:30:31;;;;;;;41.28;20.92;;;3.90;99.90;;;;;;5014016;28;20070;-76
2023/11/27 00:33:01;;;;;;;31.75;18.05;;;3.90;99.90;;;;;;5023460;28;20053;-75
2023/11/27 00:35:29;;;;;;;34.75;19.13;;;3.80;99.90;;;;;;5028725;28;20041;-75
2023/11/27 00:37:55;;;;;;;38.45;20.52;;;3.80;99.90;;;;;;5007468;28;20691;-77
2023/11/27 00:40:22;;;;;;;43.70;18.00;;;3.80;99.90;;;;;;5032032;28;20499;-75
2023/11/27 00:42:49;;;;;;;37.10;19.92;;;3.80;99.90;;;;;;5031459;28;20048;-76
2023/11/27 00:45:16;;;;;;;38.67;20.23;;;3.80;99.90;;;;;;5035705;28;20056;-78
2023/11/27 00:47:43;;;;;;;42.88;21.25;;;3.80;99.90;;;;;;5027097;28;20033;-76
2023/11/27 00:50:09;;;;;;;42.03;21.05;;;3.90;99.90;;;;;;5016192;28;20041;-76
2023/11/27 00:52:42;;;;;;;39.55;21.20;;;3.80;99.90;;;;;;5034600;28;20048;-75
2023/11/27 00:55:10;;;;;;;37.25;20.13;;;3.80;99.90;;;;;;5033770;28;20623;-76
2023/11/27 00:57:37;;;;;;;44.40;21.42;;;3.80;99.90;;;;;;5023885;28;20056;-76
2023/11/27 01:00:08;;;;;;;35.50;19.60;;;3.80;99.90;;;;;;5032185;28;20431;-75
2023/11/27 01:02:35;;;;;;;37.83;21.70;;;3.80;99.90;;;;;;5036424;28;20057;-76
2023/11/27 01:05:03;;;;;;;41.30;22.15;;;3.80;99.90;;;;;;5031275;28;20052;-75
2023/11/27 01:07:31;;;;;;;38.30;20.90;;;3.70;99.90;;;;;;5018119;28;20047;-76
2023/11/27 01:09:57;;;;;;;37.40;20.80;;;3.70;99.90;;;;;;5006865;28;21092;-76
2023/11/27 01:12:24;;;;;;;32.00;19.45;;;3.70;99.90;;;;;;5032300;28;20047;-77
2023/11/27 01:14:51;;;;;;;35.78;20.85;;;3.70;99.90;;;;;;5024710;28;20040;-77
2023/11/27 01:17:18;;;;;;;43.75;21.83;;;3.70;99.90;;;;;;5032995;28;20060;-77
2023/11/27 01:19:45;;;;;;;34.22;19.88;;;3.70;99.90;;;;;;5015926;28;20053;-76
2023/11/27 01:22:12;;;;;;;34.15;21.30;;;3.70;99.90;;;;;;5023022;28;20053;-76
2023/11/27 01:24:39;;;;;;;44.33;23.13;;;3.60;99.90;;;;;;5029845;28;20041;-75
2023/11/27 01:27:06;;;;;;;44.53;24.92;;;3.70;99.90;;;;;;5029618;28;20069;-76
2023/11/27 01:29:47;;;;;;;42.55;24.35;;;3.70;99.90;;;;;;5031486;28;20542;-75
2023/11/27 01:32:14;;;;;;;44.72;24.45;;;3.70;99.90;;;;;;5031507;28;20490;-76
2023/11/27 01:34:47;;;;;;;46.40;26.20;;;3.70;99.90;;;;;;5006218;28;20033;-75
2023/11/27 01:37:16;;;;;;;44.60;25.35;;;3.70;99.90;;;;;;5013811;28;20415;-76
2023/11/27 01:39:43;;;;;;;52.83;28.52;;;3.70;99.90;;;;;;5025268;28;20076;-76
2023/11/27 01:42:13;;;;;;;41.53;25.23;;;3.70;99.90;;;;;;5027403;28;20037;-76
2023/11/27 01:44:40;;;;;;;42.63;25.52;;;3.70;99.90;;;;;;5025530;28;20045;-76
2023/11/27 01:47:08;;;;;;;44.08;24.27;;;3.70;99.90;;;;;;5029694;28;20143;-76
2023/11/27 01:49:38;;;;;;;38.22;24.83;;;3.70;99.90;;;;;;5029512;28;20451;-76
2023/11/27 01:52:25;;;;;;;41.50;24.35;;;3.70;99.90;;;;;;5034719;28;20634;-76
2023/11/27 01:54:53;;;;;;;40.58;26.45;;;3.70;99.90;;;;;;5033034;28;20044;-76
2023/11/27 01:57:22;;;;;;;39.53;24.88;;;3.70;99.90;;;;;;5013337;28;20041;-75
2023/11/27 01:59:53;;;;;;;40.38;25.02;;;3.80;99.90;;;;;;5010868;28;20052;-77
2023/11/27 02:02:20;;;;;;;46.28;26.45;;;3.80;99.90;;;;;;5027693;28;20683;-76
2023/11/27 02:05:04;;;;;;;44.75;27.13;;;3.80;99.90;;;;;;5020178;28;20033;-76
2023/11/27 02:07:34;;;;;;;40.58;25.90;;;3.80;99.90;;;;;;5050995;28;20045;-75
2023/11/27 02:10:01;;;;;;;42.75;25.30;;;3.80;99.90;;;;;;5046772;28;20785;-76
2023/11/27 02:12:29;;;;;;;43.20;24.95;;;3.80;99.90;;;;;;5033602;28;20043;-77
2023/11/27 02:14:56;;;;;;;36.80;24.55;;;3.80;99.90;;;;;;5026220;28;20564;-76
2023/11/27 02:17:23;;;;;;;38.22;24.25;;;3.80;99.90;;;;;;5017090;28;20052;-76
2023/11/27 02:19:53;;;;;;;41.55;24.02;;;3.80;99.90;;;;;;5025279;28;20037;-76
2023/11/27 02:22:24;;;;;;;35.20;23.88;;;3.80;99.90;;;;;;5028290;28;20034;-77
2023/11/27 02:24:54;;;;;;;34.88;21.50;;;3.80;99.90;;;;;;5033481;28;20128;-76
2023/11/27 02:27:21;;;;;;;36.00;22.05;;;3.80;99.90;;;;;;5029770;28;20045;-76
2023/11/27 02:29:47;;;;;;;34.45;21.70;;;3.90;99.90;;;;;;5014402;28;20049;-77
2023/11/27 02:32:14;;;;;;;36.13;22.83;;;3.90;99.90;;;;;;5032117;28;20042;-77
2023/11/27 02:34:46;;;;;;;35.88;23.73;;;4.00;99.90;;;;;;5036954;28;20057;-75
2023/11/27 02:37:13;;;;;;;32.10;21.55;;;4.00;99.90;;;;;;5048983;28;20041;-76
2023/11/27 02:39:39;;;;;;;27.33;20.63;;;3.90;99.90;;;;;;5033652;28;20013;-76
2023/11/27 02:42:08;;;;;;;32.50;21.17;;;3.90;99.90;;;;;;5043318;28;20048;-75
2023/11/27 02:44:35;;;;;;;33.13;21.73;;;3.90;99.90;;;;;;5020099;28;20033;-77
2023/11/27 02:47:02;;;;;;;25.83;20.73;;;3.90;99.90;;;;;;5020200;28;20083;-77
2023/11/27 02:49:29;;;;;;;29.50;20.35;;;3.90;99.90;;;;;;5025203;28;20037;-77
2023/11/27 02:51:56;;;;;;;29.77;21.83;;;3.90;99.90;;;;;;5044622;28;20043;-76
2023/11/27 02:54:23;;;;;;;29.42;20.25;;;3.90;99.90;;;;;;5044407;28;20041;-76
2023/11/27 02:56:50;;;;;;;32.83;22.30;;;3.80;99.90;;;;;;5012501;28;20060;-77
2023/11/27 02:59:18;;;;;;;28.70;20.40;;;3.80;99.90;;;;;;5029172;28;20584;-76
2023/11/27 03:01:46;;;;;;;30.23;19.50;;;3.80;99.90;;;;;;5028701;28;20049;-75
2023/11/27 03:04:29;;;;;;;32.42;20.00;;;3.70;99.90;;;;;;5030543;28;20080;-75
2023/11/27 03:06:57;;;;;;;27.27;21.25;;;3.70;99.90;;;;;;5030217;28;20053;-76
2023/11/27 03:09:24;;;;;;;28.60;20.60;;;3.70;99.90;;;;;;5013070;28;20041;-76
2023/11/27 03:11:51;;;;;;;36.25;21.05;;;3.70;99.90;;;;;;5012197;28;20033;-76
2023/11/27 03:14:18;;;;;;;32.90;20.92;;;3.70;99.90;;;;;;5031692;28;20048;-75
2023/11/27 03:16:45;;;;;;;31.73;20.80;;;3.70;99.90;;;;;;5026305;28;20044;-77
2023/11/27 03:19:12;;;;;;;28.67;19.17;;;3.70;99.90;;;;;;5024601;28;20049;-76
2023/11/27 03:21:39;;;;;;;27.25;18.23;;;3.60;99.90;;;;;;5032798;28;20089;-77
2023/11/27 03:24:06;;;;;;;25.92;18.25;;;3.60;99.90;;;;;;5020788;28;20057;-76
2023/11/27 03:26:34;;;;;;;24.30;18.38;;;3.50;99.90;;;;;;5043747;28;21347;-76
2023/11/27 03:29:02;;;;;;;21.08;17.40;;;3.50;99.90;;;;;;5010666;28;20043;-76
2023/11/27 03:31:29;;;;;;;27.20;17.90;;;3.40;99.90;;;;;;5032000;28;20041;-76
2023/11/27 03:33:58;;;;;;;25.98;17.15;;;3.40;99.90;;;;;;5028191;28;20427;-77
2023/11/27 03:36:25;;;;;;;32.20;19.35;;;3.40;99.90;;;;;;5026875;28;20044;-76
2023/11/27 03:38:52;;;;;;;26.08;18.08;;;3.40;99.90;;;;;;5027232;28;20519;-77
2023/11/27 03:41:23;;;;;;;26.20;18.48;;;3.40;99.90;;;;;;5026920;28;20562;-77
2023/11/27 03:43:51;;;;;;;32.95;18.77;;;3.30;99.90;;;;;;5025442;28;20564;-75
2023/11/27 03:46:17;;;;;;;28.50;17.48;;;3.30;99.90;;;;;;5022672;28;20049;-76
2023/11/27 03:48:44;;;;;;;30.33;18.50;;;3.30;99.90;;;;;;5013582;28;20048;-76
2023/11/27 03:51:12;;;;;;;26.13;18.30;;;3.40;99.90;;;;;;5026565;28;20046;-76
2023/11/27 03:53:39;;;;;;;33.53;18.92;;;3.40;99.90;;;;;;5029380;28;20037;-76
2023/11/27 03:56:06;;;;;;;26.10;18.85;;;3.40;99.90;;;;;;5020366;28;20041;-77
2023/11/27 03:58:33;;;;;;;32.55;19.98;;;3.30;99.90;;;;;;5020818;28;20099;-77
2023/11/27 04:01:03;;;;;;;30.23;19.00;;;3.30;99.90;;;;;;5006066;28;20049;-76
2023/11/27 04:03:30;;;;;;;33.08;19.35;;;3.30;99.90;;;;;;5023327;28;20049;-76
2023/11/27 04:05:59;;;;;;;29.15;17.60;;;3.30;99.90;;;;;;5008270;28;20048;-75
2023/11/27 04:08:26;;;;;;;26.55;17.38;;;3.30;99.90;;;;;;5022519;28;20048;-76
2023/11/27 04:10:54;;;;;;;28.15;18.38;;;3.30;99.90;;;;;;5023259;28;20068;-76
2023/11/27 04:13:21;;;;;;;32.35;19.25;;;3.30;99.90;;;;;;5029654;28;20469;-75
2023/11/27 04:15:48;;;;;;;29.05;16.70;;;3.30;99.90;;;;;;5023686;28;20562;-75
2023/11/27 04:18:15;;;;;;;30.20;18.75;;;3.30;99.90;;;;;;5029393;28;20052;-76
2023/11/27 04:20:44;;;;;;;26.88;18.13;;;3.30;99.90;;;;;;5031752;28;20475;-75
2023/11/27 04:23:11;;;;;;;33.72;19.73;;;3.30;99.90;;;;;;5027036;28;20578;-75
2023/11/27 04:25:39;;;;;;;30.15;19.15;;;3.30;99.90;;;;;;5013455;28;20176;-77
2023/11/27 04:28:06;;;;;;;29.30;17.95;;;3.20;99.90;;;;;;5024692;28;20061;-76
2023/11/27 04:30:33;;;;;;;35.03;19.80;;;3.20;99.90;;;;;;5013547;28;20106;-75
2023/11/27 04:33:00;;;;;;;25.52;16.75;;;3.20;99.90;;;;;;5024168;28;20175;-76
2023/11/27 04:35:27;;;;;;;28.27;18.85;;;3.20;99.90;;;;;;5024684;28;20042;-76
2023/11/27 04:37:54;;;;;;;36.42;20.75;;;3.20;99.90;;;;;;5028807;28;20083;-76
2023/11/27 04:40:20;;;;;;;31.88;18.88;;;3.20;99.90;;;;;;5030848;28;20044;-76
2023/11/27 04:42:47;;;;;;;29.80;18.77;;;3.20;99.90;;;;;;5028121;28;20045;-76
2023/11/27 04:45:14;;;;;;;31.67;19.17;;;3.20;99.90;;;;;;5027608;28;20144;-75
2023/11/27 04:47:41;;;;;;;40.95;21.77;;;3.20;99.90;;;;;;5012784;28;20037;-75
2023/11/27 04:50:08;;;;;;;27.58;18.48;;;3.20;99.90;;;;;;5026495;28;20037;-75
2023/11/27 04:52:37;;;;;;;34.75;18.65;;;3.20;99.90;;;;;;5028781;28;20036;-76
2023/11/27 04:55:05;;;;;;;30.88;20.33;;;3.20;99.90;;;;;;5025605;28;20033;-76
2023/11/27 04:57:32;;;;;;;34.17;18.50;;;3.20;99.90;;;;;;5025692;28;20046;-74
2023/11/27 05:00:00;;;;;;;32.72;18.13;;;3.20;99.90;;;;;;5027011;28;20053;-75
2023/11/27 05:02:26;;;;;;;34.92;20.80;;;3.20;99.90;;;;;;5031029;28;20041;-76
2023/11/27 05:04:53;;;;;;;33.42;20.45;;;3.10;99.90;;;;;;5028757;28;20072;-74
2023/11/27 05:07:20;;;;;;;32.45;21.10;;;3.10;99.90;;;;;;5030999;28;20071;-76
2023/11/27 05:09:47;;;;;;;34.13;21.20;;;3.20;99.90;;;;;;5028027;28;20048;-75
2023/11/27 05:12:14;;;;;;;34.25;20.80;;;3.20;99.90;;;;;;5027508;28;20052;-75
2023/11/27 05:14:52;;;;;;;34.17;22.05;;;3.20;99.90;;;;;;5026264;28;20049;-76
2023/11/27 05:17:19;;;;;;;36.88;18.67;;;3.20;99.90;;;;;;5010057;28;20415;-76
2023/11/27 05:19:46;;;;;;;33.95;20.83;;;3.20;99.90;;;;;;5029226;28;20033;-76
2023/11/27 05:22:14;;;;;;;33.28;20.85;;;3.20;99.90;;;;;;5025634;28;20056;-76
2023/11/27 05:24:41;;;;;;;34.28;19.85;;;3.20;99.90;;;;;;5029195;28;20048;-76
2023/11/27 05:27:08;;;;;;;30.08;20.90;;;3.20;99.90;;;;;;5027464;28;20048;-74
2023/11/27 05:29:35;;;;;;;34.58;21.70;;;3.20;99.90;;;;;;5029863;28;20037;-74
2023/11/27 05:32:07;;;;;;;34.80;21.45;;;3.20;99.90;;;;;;5026555;28;20037;-75
2023/11/27 05:34:36;;;;;;;36.70;22.17;;;3.20;99.90;;;;;;5012208;28;20084;-74
2023/11/27 05:37:06;;;;;;;36.80;23.48;;;3.20;99.90;;;;;;5007856;28;20044;-75
2023/11/27 05:39:33;;;;;;;38.85;24.90;;;3.20;99.90;;;;;;5013689;28;20045;-77
2023/11/27 05:42:02;;;;;;;40.45;25.33;;;3.20;99.90;;;;;;5025283;28;20049;-75
2023/11/27 05:44:29;;;;;;;38.90;24.48;;;3.10;99.90;;;;;;5018593;28;20056;-73
2023/11/27 05:46:56;;;;;;;42.45;24.63;;;3.10;99.90;;;;;;5071002;28;20047;-75
2023/11/27 05:49:23;;;;;;;41.03;24.85;;;3.20;99.90;;;;;;5034475;28;20048;-75
2023/11/27 05:51:51;;;;;;;37.60;24.52;;;3.20;99.90;;;;;;5036973;28;20061;-76
2023/11/27 05:54:18;;;;;;;44.97;25.30;;;3.20;99.90;;;;;;5021852;28;20041;-75
2023/11/27 05:56:45;;;;;;;40.55;25.02;;;3.20;99.90;;;;;;5016036;28;20068;-75
2023/11/27 05:59:13;;;;;;;41.25;27.13;;;3.20;99.90;;;;;;5025238;28;20056;-76
2023/11/27 06:01:41;;;;;;;43.47;26.90;;;3.20;99.90;;;;;;5009786;28;20041;-76
2023/11/27 06:04:07;;;;;;;38.10;26.45;;;3.10;99.90;;;;;;5025528;28;20143;-76
2023/11/27 06:06:34;;;;;;;36.80;24.48;;;3.20;99.90;;;;;;5029130;28;20034;-75
2023/11/27 06:09:02;;;;;;;41.10;26.83;;;3.20;99.90;;;;;;5027313;28;20045;-76
2023/11/27 06:11:30;;;;;;;42.45;26.55;;;3.10;99.90;;;;;;5027008;28;20034;-75
2023/11/27 06:13:58;;;;;;;45.45;26.02;;;3.10;99.90;;;;;;5029316;28;20095;-77
2023/11/27 06:16:25;;;;;;;49.45;27.67;;;3.10;99.90;;;;;;5026759;28;20037;-74
2023/11/27 06:18:52;;;;;;;43.75;27.02;;;3.10;99.90;;;;;;5029137;28;20057;-76
2023/11/27 06:21:19;;;;;;;41.72;25.40;;;3.10;99.90;;;;;;5025195;28;20681;-76
2023/11/27 06:23:46;;;;;;;39.72;24.33;;;3.10;99.90;;;;;;5048124;28;20129;-76
2023/11/27 06:26:13;;;;;;;40.47;24.50;;;3.00;99.90;;;;;;5027331;28;20049;-75
2023/11/27 06:28:40;;;;;;;39.78;24.40;;;3.00;99.90;;;;;;5026277;28;20046;-77
2023/11/27 06:31:07;;;;;;;35.40;23.50;;;3.00;99.90;;;;;;5029625;28;20041;-76
2023/11/27 06:33:34;;;;;;;34.22;22.88;;;3.00;99.90;;;;;;5030426;28;20602;-76
2023/11/27 06:36:01;;;;;;;34.80;22.20;;;3.00;99.90;;;;;;5032395;28;20041;-76
2023/11/27 06:38:28;;;;;;;30.17;18.65;;;2.90;99.90;;;;;;5028738;28;20049;-77
2023/11/27 06:40:55;;;;;;;36.30;20.27;;;2.90;99.90;;;;;;5030445;28;20967;-78
2023/11/27 06:43:24;;;;;;;25.80;18.63;;;2.90;99.90;;;;;;5027245;28;20460;-75
2023/11/27 06:45:52;;;;;;;22.48;15.48;;;2.90;99.90;;;;;;5030389;28;20041;-74
2023/11/27 06:48:19;;;;;;;33.45;20.58;;;2.80;99.90;;;;;;5025920;28;20536;-75
2023/11/27 06:50:47;;;;;;;36.63;20.58;;;2.70;99.90;;;;;;5014770;28;20075;-78
2023/11/27 06:53:14;;;;;;;28.58;18.50;;;2.70;99.90;;;;;;5025249;28;20045;-77
2023/11/27 06:55:41;;;;;;;28.05;17.17;;;2.70;99.90;;;;;;5030344;28;20061;-77
2023/11/27 06:58:08;;;;;;;28.85;20.33;;;2.70;99.90;;;;;;5028609;28;20049;-75
2023/11/27 07:00:37;;;;;;;29.73;18.85;;;2.70;99.90;;;;;;5026345;28;20060;-77
2023/11/27 07:03:04;;;;;;;30.15;18.75;;;2.70;99.90;;;;;;5031714;28;20057;-72
2023/11/27 07:05:31;;;;;;;29.48;20.15;;;2.70;99.90;;;;;;5025260;28;20045;-75
2023/11/27 07:07:58;;;;;;;29.48;18.70;;;2.80;99.90;;;;;;5024626;28;20104;-74
2023/11/27 07:10:25;;;;;;;28.15;19.60;;;2.80;99.90;;;;;;5023756;28;20053;-74
2023/11/27 07:12:52;;;;;;;38.55;20.98;;;2.80;99.90;;;;;;5027997;28;20045;-74
2023/11/27 07:15:19;;;;;;;31.02;21.80;;;2.90;99.90;;;;;;5022665;28;20049;-75
2023/11/27 07:17:46;;;;;;;37.53;22.42;;;2.80;99.90;;;;;;5030264;28;20053;-78
2023/11/27 07:20:17;;;;;;;33.03;20.90;;;2.80;99.90;;;;;;5020741;28;20067;-75
2023/11/27 07:22:45;;;;;;;38.10;22.10;;;2.80;99.90;;;;;;5010405;28;20442;-75
2023/11/27 07:25:15;;;;;;;40.40;21.05;;;2.80;99.90;;;;;;5023548;28;20052;-76
2023/11/27 07:27:49;;;;;;;40.38;20.67;;;2.70;99.90;;;;;;5029457;28;20044;-75
2023/11/27 07:30:16;;;;;;;32.92;19.95;;;2.70;99.90;;;;;;5020105;28;20677;-76
2023/11/27 07:32:44;;;;;;;34.70;21.40;;;2.80;99.90;;;;;;5010264;28;20044;-75
2023/11/27 07:35:11;;;;;;;39.03;22.00;;;2.70;99.90;;;;;;5017411;28;20076;-75
2023/11/27 07:37:39;;;;;;;31.10;20.63;;;2.80;99.90;;;;;;5012585;28;20036;-76
2023/11/27 07:40:14;;;;;;;23.23;14.27;;;2.80;99.90;;;;;;5026441;28;20145;-75
2023/11/27 07:42:43;;;;;;;29.30;17.50;;;2.70;99.90;;;;;;5028934;28;20044;-76
2023/11/27 07:45:10;;;;;;;34.95;20.80;;;2.80;99.90;;;;;;5010075;28;20511;-74
2023/11/27 07:47:37;;;;;;;31.38;19.35;;;2.70;99.90;;;;;;5006890;28;20715;-76
2023/11/27 07:50:06;;;;;;;39.30;23.58;;;2.80;99.90;;;;;;5010167;28;20045;-76
2023/11/27 07:52:33;;;;;;;34.55;21.95;;;2.80;99.90;;;;;;5028848;28;20033;-75
2023/11/27 07:55:00;;;;;;;34.38;20.63;;;2.80;99.90;;;;;;5029079;28;20132;-76
2023/11/27 07:57:28;;;;;;;29.23;21.15;;;2.80;99.90;;;;;;5020299;28;20612;-75
2023/11/27 07:59:55;;;;;;;27.30;18.83;;;2.80;99.90;;;;;;5036779;28;20102;-75
2023/11/27 08:02:24;;;;;;;22.75;15.70;;;2.80;99.90;;;;;;5005588;28;20068;-74
2023/11/27 08:04:52;;;;;;;39.25;23.25;;;2.80;99.90;;;;;;5025410;28;20103;-76
2023/11/27 08:07:19;;;;;;;37.22;24.80;;;2.80;99.90;;;;;;5017934;28;20041;-76
2023/11/27 08:09:46;;;;;;;37.15;22.13;;;2.80;99.90;;;;;;5024416;28;20136;-76
2023/11/27 08:12:13;;;;;;;33.90;23.05;;;2.80;99.90;;;;;;5018438;28;20041;-76
2023/11/27 08:14:40;;;;;;;32.67;20.33;;;2.80;99.90;;;;;;5026208;28;20049;-76
2023/11/27 08:17:08;;;;;;;28.92;19.88;;;2.80;99.90;;;;;;5008235;28;20064;-75
2023/11/27 08:19:36;;;;;;;31.70;20.08;;;2.80;99.90;;;;;;5042563;28;20049;-75
2023/11/27 08:22:04;;;;;;;31.83;20.55;;;2.80;99.90;;;;;;5030266;28;20106;-76
2023/11/27 08:24:35;;;;;;;33.22;19.13;;;2.80;99.90;;;;;;5008265;28;20052;-76
2023/11/27 08:27:02;;;;;;;29.23;20.35;;;2.80;99.90;;;;;;5011931;28;20056;-77
2023/11/27 08:29:32;;;;;;;29.13;20.25;;;2.80;99.90;;;;;;5025376;28;20056;-76
2023/11/27 08:32:00;;;;;;;28.38;17.58;;;2.80;99.90;;;;;;5027204;28;20049;-76
2023/11/27 08:34:30;;;;;;;35.63;21.35;;;2.80;99.90;;;;;;5012302;28;20258;-75
2023/11/27 08:36:59;;;;;;;36.40;23.33;;;2.80;99.90;;;;;;5031603;28;20625;-76
2023/11/27 08:39:26;;;;;;;28.60;20.33;;;2.90;99.90;;;;;;5024280;28;20139;-76
2023/11/27 08:42:01;;;;;;;22.95;16.45;;;2.80;99.90;;;;;;5034444;28;20534;-76
2023/11/27 08:44:28;;;;;;;24.45;15.38;;;2.80;99.90;;;;;;5015234;28;20739;-76
2023/11/27 08:46:59;;;;;;;26.92;17.50;;;2.70;99.90;;;;;;5022906;28;20451;-74
2023/11/27 08:49:25;;;;;;;24.13;16.45;;;2.70;99.90;;;;;;5025956;28;20166;-75
2023/11/27 08:51:52;;;;;;;13.10;11.73;;;2.70;99.90;;;;;;5034455;28;20095;-74
2023/11/27 08:54:19;;;;;;;19.73;15.15;;;2.70;99.90;;;;;;5014163;28;20069;-75
2023/11/27 08:56:54;;;;;;;17.60;13.45;;;2.70;99.90;;;;;;5019760;28;20057;-74
2023/11/27 08:59:21;;;;;;;27.30;15.27;;;2.70;99.90;;;;;;5014005;28;20041;-77
2023/11/27 09:01:48;;;;;;;17.38;12.98;;;2.70;99.90;;;;;;5041625;28;20064;-74
2023/11/27 09:04:18;;;;;;;20.00;14.25;;;2.70;99.90;;;;;;5043020;28;20049;-77
2023/11/27 09:07:11;;;;;;;26.20;16.08;;;2.80;99.90;;;;;;5030530;28;20022;-75
2023/11/27 09:09:38;;;;;;;27.77;17.55;;;2.80;99.90;;;;;;5029407;28;20236;-75
2023/11/27 09:12:05;;;;;;;26.63;19.67;;;2.80;99.90;;;;;;5017918;28;20175;-74
2023/11/27 09:14:37;;;;;;;27.63;17.50;;;2.90;99.90;;;;;;5031322;28;20037;-75
2023/11/27 09:17:10;;;;;;;26.50;18.30;;;2.90;99.90;;;;;;5015409;28;20037;-75
2023/11/27 09:19:37;;;;;;;27.77;20.25;;;2.80;99.90;;;;;;5030623;28;20045;-75
2023/11/27 09:22:04;;;;;;;25.10;16.60;;;2.80;99.90;;;;;;5018735;28;20114;-75
2023/11/27 09:24:31;;;;;;;22.00;15.38;;;2.80;99.90;;;;;;5027302;28;20037;-74
2023/11/27 09:27:01;;;;;;;22.75;17.60;;;2.80;99.90;;;;;;5033592;28;20049;-75
2023/11/27 09:29:28;;;;;;;20.13;17.42;;;2.80;99.90;;;;;;5016884;28;20124;-74
2023/11/27 09:31:55;;;;;;;26.25;17.77;;;2.90;99.90;;;;;;5055040;28;20065;-74
2023/11/27 09:34:22;;;;;;;18.60;15.10;;;2.80;99.90;;;;;;5040067;28;20051;-73
2023/11/27 09:36:49;;;;;;;29.38;21.15;;;2.80;99.90;;;;;;5054540;28;20044;-75
2023/11/27 09:39:37;;;;;;;49.72;31.75;;;2.80;99.90;;;;;;5020261;28;20063;-75
2023/11/27 09:42:06;;;;;;;26.25;18.67;;;2.80;99.90;;;;;;5035898;28;20048;-74
2023/11/27 09:44:35;;;;;;;22.65;16.08;;;2.80;99.90;;;;;;5032178;28;20569;-74
2023/11/27 09:47:03;;;;;;;28.85;20.73;;;2.70;99.90;;;;;;5014142;28;20127;-74
2023/11/27 09:49:35;;;;;;;24.88;16.45;;;2.60;99.90;;;;;;5030889;28;20361;-75
2023/11/27 09:52:54;;;;;;;19.33;15.23;;;2.60;99.90;;;;;;5030293;28;20079;-73
2023/11/27 09:55:23;;;;;;;18.02;12.07;;;2.60;99.90;;;;;;5010982;28;20156;-72
2023/11/27 09:58:13;;;;;;;17.20;13.38;;;2.60;99.90;;;;;;5018560;28;20519;-74
2023/11/27 10:00:42;;;;;;;29.20;17.35;;;2.50;99.90;;;;;;5029074;28;20082;-74
2023/11/27 10:03:09;;;;;;;19.80;15.35;;;2.60;99.90;;;;;;5032330;28;20152;-74
2023/11/27 10:05:37;;;;;;;39.58;29.17;;;2.60;99.90;;;;;;5029385;28;20044;-78
2023/11/27 10:08:08;;;;;;;20.15;13.10;;;2.50;99.90;;;;;;5019307;28;20041;-74
2023/11/27 10:10:39;;;;;;;16.45;12.35;;;2.50;99.90;;;;;;5029038;28;20052;-73
2023/11/27 10:13:18;;;;;;;18.48;11.43;;;2.50;99.90;;;;;;5035719;28;20053;-74
2023/11/27 10:16:05;;;;;;;19.73;13.10;;;2.40;99.90;;;;;;5024951;28;20110;-73
2023/11/27 10:18:32;;;;;;;22.98;15.73;;;2.40;99.90;;;;;;5034319;28;20056;-73
2023/11/27 10:21:07;;;;;;;18.35;11.80;;;2.40;99.90;;;;;;5030048;28;20084;-73
2023/11/27 10:23:34;;;;;;;24.17;14.90;;;2.40;99.90;;;;;;5009247;28;20071;-77
2023/11/27 10:26:01;;;;;;;17.80;14.35;;;2.40;99.90;;;;;;5015114;28;20052;-73
2023/11/27 10:28:50;;;;;;;20.88;14.65;;;2.30;99.90;;;;;;5030166;28;20049;-74
2023/11/27 10:31:17;;;;;;;22.10;14.52;;;2.20;99.90;;;;;;5044463;28;20581;-74
2023/11/27 10:33:44;;;;;;;33.45;26.05;;;2.10;99.90;;;;;;5025139;28;20130;-75
2023/11/27 10:36:11;;;;;;;17.98;14.05;;;2.10;99.90;;;;;;5032952;28;20415;-74
2023/11/27 10:39:15;;;;;;;14.82;12.13;;;2.00;99.90;;;;;;5028312;28;20056;-73
2023/11/27 10:41:48;;;;;;;14.88;12.10;;;2.00;99.90;;;;;;5030655;28;20115;-73
2023/11/27 10:44:16;;;;;;;18.33;14.60;;;1.90;99.90;;;;;;5018313;28;20041;-73
2023/11/27 10:46:44;;;;;;;16.27;12.07;;;1.90;99.90;;;;;;5026591;28;20050;-74
2023/11/27 10:49:15;;;;;;;18.85;14.93;;;1.90;99.90;;;;;;5036571;28;20089;-74
2023/11/27 10:51:45;;;;;;;20.40;15.27;;;1.90;99.90;;;;;;5028997;28;20045;-73
2023/11/27 10:54:14;;;;;;;19.67;14.30;;;1.80;99.90;;;;;;5035564;28;20122;-75
2023/11/27 10:56:45;;;;;;;22.13;15.10;;;1.80;99.90;;;;;;5027261;28;20044;-75
2023/11/27 10:59:17;;;;;;;23.42;16.65;;;1.90;99.90;;;;;;5018775;28;20062;-73
2023/11/27 11:02:00;;;;;;;25.73;19.07;;;1.80;99.90;;;;;;5014656;28;20460;-76
2023/11/27 11:04:52;;;;;;;60.45;44.13;;;1.80;99.90;;;;;;5027546;28;20045;-73
2023/11/27 11:07:28;;;;;;;17.05;13.05;;;1.80;99.90;;;;;;5018979;28;20040;-76
2023/11/27 11:09:56;;;;;;;16.35;11.48;;;1.70;99.90;;;;;;5034521;28;20677;-76
2023/11/27 11:12:24;;;;;;;23.05;17.33;;;1.70;99.90;;;;;;5034924;28;20296;-73
2023/11/27 11:14:53;;;;;;;20.13;14.32;;;1.70;99.90;;;;;;5024587;28;20148;-74
2023/11/27 11:17:35;;;;;;;14.40;10.98;;;1.70;99.90;;;;;;5011601;28;20533;-76
2023/11/27 11:20:28;;;;;;;16.85;12.93;;;1.70;99.90;;;;;;5028837;28;20075;-74
2023/11/27 11:23:23;;;;;;;17.10;14.27;;;1.70;99.90;;;;;;5017433;28;20064;-74
2023/11/27 11:26:47;;;;;;;18.48;15.13;;;1.70;99.90;;;;;;5027078;28;20056;-73
2023/11/27 11:29:33;;;;;;;21.92;14.73;;;1.70;99.90;;;;;;4972007;28;20054;-76
2023/11/27 11:32:14;;;;;;;15.63;10.82;;;1.60;99.90;;;;;;4957900;28;20904;-74
2023/11/27 11:35:11;;;;;;;16.25;13.23;;;1.60;99.90;;;;;;4992069;28;20589;-75
2023/11/27 11:37:53;;;;;;;33.40;26.85;;;1.60;99.90;;;;;;5012162;28;20040;-74
2023/11/27 11:40:40;;;;;;;18.75;15.55;;;1.70;99.90;;;;;;5032871;28;20046;-75
2023/11/27 11:43:10;;;;;;;25.70;19.63;;;1.70;99.90;;;;;;5033361;28;20672;-75
2023/11/27 11:45:46;;;;;;;23.52;16.88;;;1.70;99.90;;;;;;5006519;28;20130;-75
2023/11/27 11:48:15;;;;;;;28.25;19.45;;;1.70;99.90;;;;;;5047009;28;20047;-75
2023/11/27 11:50:42;;;;;;;17.08;14.13;;;1.70;99.90;;;;;;5019051;28;20040;-75
2023/11/27 11:53:14;;;;;;;12.57;10.82;;;1.70;99.90;;;;;;5030028;28;20053;-76
2023/11/27 11:55:57;;;;;;;23.13;19.00;;;1.70;99.90;;;;;;5016525;28;20049;-75
2023/11/27 11:58:27;;;;;;;23.55;21.00;;;1.70;99.90;;;;;;5023972;28;20558;-75
2023/11/27 12:01:03;;;;;;;21.42;16.85;;;1.70;99.90;;;;;;5022268;28;20055;-75
2023/11/27 12:03:37;;;;;;;15.60;13.73;;;1.70;99.90;;;;;;5025688;28;20056;-74
2023/11/27 12:06:14;;;;;;;19.58;16.08;;;1.70;99.90;;;;;;5013852;28;20044;-75
2023/11/27 12:08:45;;;;;;;17.48;14.77;;;1.70;99.90;;;;;;5010369;28;20163;-75
2023/11/27 12:11:15;;;;;;;27.85;22.65;;;1.70;99.90;;;;;;5031979;28;20088;-73
2023/11/27 12:13:43;;;;;;;17.50;14.60;;;1.70;99.90;;;;;;5033354;28;20049;-73
2023/11/27 12:16:11;;;;;;;31.48;23.92;;;1.70;99.90;;;;;;5036486;28;20140;-73
2023/11/27 12:18:47;;;;;;;25.55;20.70;;;1.70;99.90;;;;;;5022794;28;20044;-74
2023/11/27 12:21:16;;;;;;;15.65;13.43;;;1.70;99.90;;;;;;5030253;28;20049;-75
2023/11/27 12:23:48;;;;;;;37.70;28.30;;;1.70;99.90;;;;;;5010610;28;20045;-77
2023/11/27 12:26:23;;;;;;;22.65;20.05;;;1.70;99.90;;;;;;5031617;28;20139;-76
2023/11/27 12:28:51;;;;;;;18.30;15.77;;;1.70;99.90;;;;;;5006335;28;20048;-76
2023/11/27 12:31:33;;;;;;;15.75;14.13;;;1.70;99.90;;;;;;5007715;28;20123;-77
2023/11/27 12:34:06;;;;;;;16.35;14.70;;;1.70;99.90;;;;;;5027332;28;20049;-75
2023/11/27 12:36:33;;;;;;;70.15;50.60;;;1.70;99.90;;;;;;5012846;28;20040;-76
2023/11/27 12:39:03;;;;;;;45.28;35.03;;;1.70;99.90;;;;;;5021543;28;20073;-76
2023/11/27 12:41:31;;;;;;;34.90;29.23;;;1.70;99.90;;;;;;5022361;28;20050;-77
2023/11/27 12:44:13;;;;;;;26.05;22.33;;;1.80;99.90;;;;;;5035911;28;20065;-76
2023/11/27 12:46:48;;;;;;;15.45;13.80;;;1.70;99.90;;;;;;5025120;28;20635;-77
2023/11/27 12:49:21;;;;;;;35.45;25.95;;;1.70;99.90;;;;;;5050070;28;20406;-76